sensor_id;sensor_type;location;lat;lon;timestamp;P1;durP1;ratioP1;P2;durP2;ratioP2
34765;SDS011;20984;43.508;1.504;2023-01-26T00:00:57;39.88;;;23.90;;
34765;SDS011;20984;43.508;1.504;2023-01-26T00:03:24;41.00;;;27.45;;
34765;SDS011;20984;43.508;1.504;2023-01-26T00:05:50;43.17;;;25.10;;
34765;SDS011;20984;43.508;1.504;2023-01-26T00:08:16;43.22;;;26.33;;
34765;SDS011;20984;43.508;1.504;2023-01-26T00:10:41;42.50;;;25.85;;
34765;SDS011;20984;43.508;1.504;2023-01-26T00:13:14;38.03;;;25.15;;
34765;SDS011;20984;43.508;1.504;2023-01-26T00:15:46;45.13;;;28.52;;
34765;SDS011;20984;43.508;1.504;2023-01-26T00:18:12;38.13;;;25.58;;
34765;SDS011;20984;43.508;1.504;2023-01-26T00:20:38;39.60;;;27.50;;
34765;SDS011;20984;43.508;1.504;2023-01-26T00:23:04;40.95;;;24.42;;
34765;SDS011;20984;43.508;1.504;2023-01-26T00:25:30;42.40;;;26.90;;
34765;SDS011;20984;43.508;1.504;2023-01-26T00:27:56;38.10;;;25.40;;
34765;SDS011;20984;43.508;1.504;2023-01-26T00:30:22;45.35;;;27.90;;
34765;SDS011;20984;43.508;1.504;2023-01-26T00:32:48;44.33;;;26.80;;
34765;SDS011;20984;43.508;1.504;2023-01-26T00:35:13;36.72;;;23.27;;
34765;SDS011;20984;43.508;1.504;2023-01-26T00:37:40;38.95;;;23.88;;
34765;SDS011;20984;43.508;1.504;2023-01-26T00:40:06;43.90;;;24.85;;
34765;SDS011;20984;43.508;1.504;2023-01-26T00:42:32;38.65;;;25.88;;
34765;SDS011;20984;43.508;1.504;2023-01-26T00:44:58;47.20;;;25.30;;
34765;SDS011;20984;43.508;1.504;2023-01-26T00:47:24;41.25;;;25.75;;
34765;SDS011;20984;43.508;1.504;2023-01-26T00:49:49;40.05;;;25.35;;
34765;SDS011;20984;43.508;1.504;2023-01-26T00:52:15;35.38;;;23.13;;
34765;SDS011;20984;43.508;1.504;2023-01-26T00:54:40;44.60;;;24.40;;
34765;SDS011;20984;43.508;1.504;2023-01-26T00:57:06;41.60;;;26.10;;
34765;SDS011;20984;43.508;1.504;2023-01-26T00:59:32;42.35;;;26.17;;
34765;SDS011;20984;43.508;1.504;2023-01-26T01:01:58;39.17;;;24.23;;
34765;SDS011;20984;43.508;1.504;2023-01-26T01:04:26;49.72;;;27.50;;
34765;SDS011;20984;43.508;1.504;2023-01-26T01:06:55;40.42;;;24.02;;
34765;SDS011;20984;43.508;1.504;2023-01-26T01:09:22;43.58;;;25.80;;
34765;SDS011;20984;43.508;1.504;2023-01-26T01:11:48;42.25;;;24.80;;
34765;SDS011;20984;43.508;1.504;2023-01-26T01:14:14;41.47;;;25.85;;
34765;SDS011;20984;43.508;1.504;2023-01-26T01:16:40;42.97;;;27.25;;
34765;SDS011;20984;43.508;1.504;2023-01-26T01:19:06;36.90;;;24.00;;
34765;SDS011;20984;43.508;1.504;2023-01-26T01:21:32;39.92;;;25.63;;
34765;SDS011;20984;43.508;1.504;2023-01-26T01:23:58;44.65;;;25.55;;
34765;SDS011;20984;43.508;1.504;2023-01-26T01:26:24;47.53;;;26.05;;
34765;SDS011;20984;43.508;1.504;2023-01-26T01:28:54;40.15;;;24.13;;
34765;SDS011;20984;43.508;1.504;2023-01-26T01:31:20;42.25;;;25.58;;
34765;SDS011;20984;43.508;1.504;2023-01-26T01:33:46;40.67;;;27.15;;
34765;SDS011;20984;43.508;1.504;2023-01-26T01:36:13;39.50;;;26.35;;
34765;SDS011;20984;43.508;1.504;2023-01-26T01:38:41;41.90;;;25.95;;
34765;SDS011;20984;43.508;1.504;2023-01-26T01:41:09;42.15;;;25.88;;
34765;SDS011;20984;43.508;1.504;2023-01-26T01:43:35;35.40;;;23.90;;
34765;SDS011;20984;43.508;1.504;2023-01-26T01:46:02;39.08;;;24.08;;
34765;SDS011;20984;43.508;1.504;2023-01-26T01:48:58;38.70;;;25.30;;
34765;SDS011;20984;43.508;1.504;2023-01-26T01:51:40;39.50;;;24.70;;
34765;SDS011;20984;43.508;1.504;2023-01-26T01:55:31;40.75;;;25.40;;
34765;SDS011;20984;43.508;1.504;2023-01-26T01:57:41;32.88;;;22.27;;
34765;SDS011;20984;43.508;1.504;2023-01-26T02:00:19;36.25;;;21.92;;
34765;SDS011;20984;43.508;1.504;2023-01-26T02:02:52;34.08;;;22.10;;
34765;SDS011;20984;43.508;1.504;2023-01-26T02:10:52;34.53;;;22.67;;
34765;SDS011;20984;43.508;1.504;2023-01-26T02:13:20;34.13;;;21.23;;
34765;SDS011;20984;43.508;1.504;2023-01-26T02:15:48;33.55;;;21.55;;
34765;SDS011;20984;43.508;1.504;2023-01-26T02:18:15;35.70;;;21.75;;
34765;SDS011;20984;43.508;1.504;2023-01-26T02:21:05;31.83;;;21.33;;
34765;SDS011;20984;43.508;1.504;2023-01-26T02:26:35;31.50;;;21.25;;
34765;SDS011;20984;43.508;1.504;2023-01-26T02:29:01;32.40;;;21.27;;
34765;SDS011;20984;43.508;1.504;2023-01-26T02:31:30;30.20;;;20.17;;
34765;SDS011;20984;43.508;1.504;2023-01-26T02:33:56;29.33;;;20.48;;
34765;SDS011;20984;43.508;1.504;2023-01-26T02:36:25;28.83;;;19.80;;
34765;SDS011;20984;43.508;1.504;2023-01-26T02:41:58;25.02;;;17.05;;
34765;SDS011;20984;43.508;1.504;2023-01-26T02:44:42;33.40;;;21.73;;
34765;SDS011;20984;43.508;1.504;2023-01-26T02:47:09;36.85;;;19.75;;
34765;SDS011;20984;43.508;1.504;2023-01-26T02:49:39;31.02;;;20.80;;
34765;SDS011;20984;43.508;1.504;2023-01-26T02:52:12;32.50;;;21.65;;
34765;SDS011;20984;43.508;1.504;2023-01-26T02:54:39;29.20;;;18.70;;
34765;SDS011;20984;43.508;1.504;2023-01-26T02:57:23;30.98;;;20.25;;
34765;SDS011;20984;43.508;1.504;2023-01-26T02:59:48;34.70;;;20.92;;
34765;SDS011;20984;43.508;1.504;2023-01-26T03:02:14;31.08;;;19.17;;
34765;SDS011;20984;43.508;1.504;2023-01-26T03:04:40;34.15;;;22.58;;
34765;SDS011;20984;43.508;1.504;2023-01-26T03:07:07;29.52;;;21.27;;
34765;SDS011;20984;43.508;1.504;2023-01-26T03:09:33;33.97;;;20.75;;
34765;SDS011;20984;43.508;1.504;2023-01-26T03:11:58;29.23;;;21.48;;
34765;SDS011;20984;43.508;1.504;2023-01-26T03:14:24;28.60;;;20.33;;
34765;SDS011;20984;43.508;1.504;2023-01-26T03:16:50;23.17;;;16.00;;
34765;SDS011;20984;43.508;1.504;2023-01-26T03:19:15;29.73;;;20.08;;
34765;SDS011;20984;43.508;1.504;2023-01-26T03:21:59;30.00;;;21.23;;
34765;SDS011;20984;43.508;1.504;2023-01-26T03:24:44;30.33;;;21.65;;
34765;SDS011;20984;43.508;1.504;2023-01-26T03:27:39;32.10;;;19.42;;
34765;SDS011;20984;43.508;1.504;2023-01-26T03:30:07;25.40;;;17.75;;
34765;SDS011;20984;43.508;1.504;2023-01-26T03:32:33;30.38;;;20.17;;
34765;SDS011;20984;43.508;1.504;2023-01-26T03:34:59;30.02;;;20.88;;
34765;SDS011;20984;43.508;1.504;2023-01-26T03:37:25;29.88;;;21.77;;
34765;SDS011;20984;43.508;1.504;2023-01-26T03:39:51;31.65;;;21.20;;
34765;SDS011;20984;43.508;1.504;2023-01-26T03:42:35;34.92;;;21.15;;
34765;SDS011;20984;43.508;1.504;2023-01-26T03:45:20;30.75;;;20.13;;
34765;SDS011;20984;43.508;1.504;2023-01-26T03:48:09;28.40;;;19.23;;
34765;SDS011;20984;43.508;1.504;2023-01-26T03:50:54;27.13;;;18.58;;
34765;SDS011;20984;43.508;1.504;2023-01-26T03:53:39;33.03;;;21.52;;
34765;SDS011;20984;43.508;1.504;2023-01-26T03:56:23;26.52;;;20.35;;
34765;SDS011;20984;43.508;1.504;2023-01-26T03:58:52;27.38;;;19.38;;
34765;SDS011;20984;43.508;1.504;2023-01-26T04:01:20;34.00;;;22.27;;
34765;SDS011;20984;43.508;1.504;2023-01-26T04:03:52;28.60;;;20.90;;
34765;SDS011;20984;43.508;1.504;2023-01-26T04:06:38;33.15;;;20.70;;
34765;SDS011;20984;43.508;1.504;2023-01-26T04:09:24;30.70;;;21.02;;
34765;SDS011;20984;43.508;1.504;2023-01-26T04:11:50;29.83;;;20.23;;
34765;SDS011;20984;43.508;1.504;2023-01-26T04:14:16;29.65;;;21.23;;
34765;SDS011;20984;43.508;1.504;2023-01-26T04:17:00;30.25;;;20.92;;
34765;SDS011;20984;43.508;1.504;2023-01-26T04:19:45;27.27;;;18.52;;
34765;SDS011;20984;43.508;1.504;2023-01-26T04:22:30;29.75;;;19.48;;
34765;SDS011;20984;43.508;1.504;2023-01-26T04:25:07;29.23;;;19.65;;
34765;SDS011;20984;43.508;1.504;2023-01-26T04:27:34;33.28;;;22.35;;
34765;SDS011;20984;43.508;1.504;2023-01-26T04:30:00;29.98;;;19.30;;
34765;SDS011;20984;43.508;1.504;2023-01-26T04:32:27;28.40;;;19.15;;
34765;SDS011;20984;43.508;1.504;2023-01-26T04:34:53;29.67;;;19.58;;
34765;SDS011;20984;43.508;1.504;2023-01-26T04:37:19;31.13;;;20.92;;
34765;SDS011;20984;43.508;1.504;2023-01-26T04:39:45;23.60;;;17.23;;
34765;SDS011;20984;43.508;1.504;2023-01-26T04:42:11;29.73;;;20.33;;
34765;SDS011;20984;43.508;1.504;2023-01-26T04:44:37;26.92;;;17.20;;
34765;SDS011;20984;43.508;1.504;2023-01-26T04:47:02;21.77;;;15.48;;
34765;SDS011;20984;43.508;1.504;2023-01-26T04:49:28;27.85;;;19.10;;
34765;SDS011;20984;43.508;1.504;2023-01-26T04:51:54;28.23;;;18.73;;
34765;SDS011;20984;43.508;1.504;2023-01-26T04:54:19;21.63;;;17.30;;
34765;SDS011;20984;43.508;1.504;2023-01-26T04:56:45;30.83;;;19.20;;
34765;SDS011;20984;43.508;1.504;2023-01-26T04:59:11;32.50;;;20.65;;
34765;SDS011;20984;43.508;1.504;2023-01-26T05:01:38;30.63;;;21.17;;
34765;SDS011;20984;43.508;1.504;2023-01-26T05:04:05;26.10;;;19.00;;
34765;SDS011;20984;43.508;1.504;2023-01-26T05:06:31;31.35;;;19.80;;
34765;SDS011;20984;43.508;1.504;2023-01-26T05:08:57;27.52;;;19.63;;
34765;SDS011;20984;43.508;1.504;2023-01-26T05:11:23;32.83;;;19.02;;
34765;SDS011;20984;43.508;1.504;2023-01-26T05:13:49;26.45;;;18.25;;
34765;SDS011;20984;43.508;1.504;2023-01-26T05:16:15;26.08;;;18.30;;
34765;SDS011;20984;43.508;1.504;2023-01-26T05:18:41;30.33;;;18.58;;
34765;SDS011;20984;43.508;1.504;2023-01-26T05:21:08;29.15;;;17.45;;
34765;SDS011;20984;43.508;1.504;2023-01-26T05:23:35;28.83;;;17.65;;
34765;SDS011;20984;43.508;1.504;2023-01-26T05:26:01;26.75;;;18.45;;
34765;SDS011;20984;43.508;1.504;2023-01-26T05:28:27;27.08;;;18.35;;
34765;SDS011;20984;43.508;1.504;2023-01-26T05:30:53;29.40;;;19.02;;
34765;SDS011;20984;43.508;1.504;2023-01-26T05:33:18;24.92;;;17.27;;
34765;SDS011;20984;43.508;1.504;2023-01-26T05:35:47;27.08;;;18.65;;
34765;SDS011;20984;43.508;1.504;2023-01-26T05:38:14;29.90;;;18.83;;
34765;SDS011;20984;43.508;1.504;2023-01-26T05:40:40;26.95;;;19.40;;
34765;SDS011;20984;43.508;1.504;2023-01-26T05:43:06;27.23;;;18.40;;
34765;SDS011;20984;43.508;1.504;2023-01-26T05:45:32;24.83;;;17.17;;
34765;SDS011;20984;43.508;1.504;2023-01-26T05:47:58;29.77;;;18.85;;
34765;SDS011;20984;43.508;1.504;2023-01-26T05:50:25;40.60;;;23.55;;
34765;SDS011;20984;43.508;1.504;2023-01-26T05:52:50;22.85;;;17.42;;
34765;SDS011;20984;43.508;1.504;2023-01-26T05:55:16;24.92;;;16.00;;
34765;SDS011;20984;43.508;1.504;2023-01-26T05:57:42;27.65;;;17.42;;
34765;SDS011;20984;43.508;1.504;2023-01-26T06:00:08;21.17;;;16.63;;
34765;SDS011;20984;43.508;1.504;2023-01-26T06:02:36;31.08;;;18.58;;
34765;SDS011;20984;43.508;1.504;2023-01-26T06:05:01;21.48;;;16.15;;
34765;SDS011;20984;43.508;1.504;2023-01-26T06:07:28;22.65;;;15.20;;
34765;SDS011;20984;43.508;1.504;2023-01-26T06:09:53;26.45;;;15.02;;
34765;SDS011;20984;43.508;1.504;2023-01-26T06:12:19;28.65;;;17.40;;
34765;SDS011;20984;43.508;1.504;2023-01-26T06:14:45;24.38;;;16.13;;
34765;SDS011;20984;43.508;1.504;2023-01-26T06:17:12;25.70;;;16.88;;
34765;SDS011;20984;43.508;1.504;2023-01-26T06:19:39;20.55;;;13.43;;
34765;SDS011;20984;43.508;1.504;2023-01-26T06:22:09;24.90;;;15.50;;
34765;SDS011;20984;43.508;1.504;2023-01-26T06:24:35;22.70;;;17.35;;
34765;SDS011;20984;43.508;1.504;2023-01-26T06:27:01;26.17;;;15.75;;
34765;SDS011;20984;43.508;1.504;2023-01-26T06:29:27;34.53;;;19.85;;
34765;SDS011;20984;43.508;1.504;2023-01-26T06:31:53;24.42;;;15.63;;
34765;SDS011;20984;43.508;1.504;2023-01-26T06:34:19;24.75;;;16.52;;
34765;SDS011;20984;43.508;1.504;2023-01-26T06:36:45;24.10;;;15.40;;
34765;SDS011;20984;43.508;1.504;2023-01-26T06:39:11;26.10;;;15.38;;
34765;SDS011;20984;43.508;1.504;2023-01-26T06:41:38;26.52;;;16.42;;
34765;SDS011;20984;43.508;1.504;2023-01-26T06:44:04;77.78;;;63.10;;
34765;SDS011;20984;43.508;1.504;2023-01-26T06:46:30;27.50;;;16.15;;
34765;SDS011;20984;43.508;1.504;2023-01-26T06:48:55;22.73;;;15.23;;
34765;SDS011;20984;43.508;1.504;2023-01-26T06:53:53;20.25;;;14.68;;
34765;SDS011;20984;43.508;1.504;2023-01-26T06:56:21;22.98;;;13.65;;
34765;SDS011;20984;43.508;1.504;2023-01-26T06:58:47;20.02;;;13.70;;
34765;SDS011;20984;43.508;1.504;2023-01-26T07:01:15;17.27;;;13.25;;
34765;SDS011;20984;43.508;1.504;2023-01-26T07:03:50;19.58;;;12.30;;
34765;SDS011;20984;43.508;1.504;2023-01-26T07:06:17;20.25;;;13.40;;
34765;SDS011;20984;43.508;1.504;2023-01-26T07:08:43;22.65;;;15.25;;
34765;SDS011;20984;43.508;1.504;2023-01-26T07:11:09;22.42;;;15.07;;
34765;SDS011;20984;43.508;1.504;2023-01-26T07:13:36;25.08;;;15.30;;
34765;SDS011;20984;43.508;1.504;2023-01-26T07:16:07;22.65;;;14.93;;
34765;SDS011;20984;43.508;1.504;2023-01-26T07:18:36;24.60;;;15.82;;
34765;SDS011;20984;43.508;1.504;2023-01-26T07:21:05;20.60;;;15.10;;
34765;SDS011;20984;43.508;1.504;2023-01-26T07:23:33;25.33;;;16.13;;
34765;SDS011;20984;43.508;1.504;2023-01-26T07:25:59;23.27;;;16.45;;
34765;SDS011;20984;43.508;1.504;2023-01-26T07:28:25;29.27;;;17.05;;
34765;SDS011;20984;43.508;1.504;2023-01-26T07:30:51;25.92;;;15.93;;
34765;SDS011;20984;43.508;1.504;2023-01-26T07:33:21;28.73;;;17.58;;
34765;SDS011;20984;43.508;1.504;2023-01-26T07:35:46;24.60;;;16.15;;
34765;SDS011;20984;43.508;1.504;2023-01-26T07:38:12;26.75;;;16.02;;
34765;SDS011;20984;43.508;1.504;2023-01-26T07:40:38;28.35;;;16.75;;
34765;SDS011;20984;43.508;1.504;2023-01-26T07:43:03;27.70;;;16.27;;
34765;SDS011;20984;43.508;1.504;2023-01-26T07:45:29;30.75;;;19.33;;
34765;SDS011;20984;43.508;1.504;2023-01-26T07:47:55;29.25;;;20.65;;
34765;SDS011;20984;43.508;1.504;2023-01-26T07:50:21;35.85;;;20.58;;
34765;SDS011;20984;43.508;1.504;2023-01-26T07:52:49;28.02;;;16.88;;
34765;SDS011;20984;43.508;1.504;2023-01-26T07:55:16;34.17;;;17.63;;
34765;SDS011;20984;43.508;1.504;2023-01-26T07:57:46;35.35;;;18.30;;
34765;SDS011;20984;43.508;1.504;2023-01-26T08:00:13;27.92;;;18.27;;
34765;SDS011;20984;43.508;1.504;2023-01-26T08:02:39;28.48;;;16.90;;
34765;SDS011;20984;43.508;1.504;2023-01-26T08:05:05;31.30;;;19.35;;
34765;SDS011;20984;43.508;1.504;2023-01-26T08:07:31;34.35;;;19.35;;
34765;SDS011;20984;43.508;1.504;2023-01-26T08:09:57;30.35;;;17.70;;
34765;SDS011;20984;43.508;1.504;2023-01-26T08:12:23;24.00;;;15.75;;
34765;SDS011;20984;43.508;1.504;2023-01-26T08:14:49;16.75;;;11.02;;
34765;SDS011;20984;43.508;1.504;2023-01-26T08:17:15;19.15;;;12.07;;
34765;SDS011;20984;43.508;1.504;2023-01-26T08:19:43;18.48;;;12.52;;
34765;SDS011;20984;43.508;1.504;2023-01-26T08:22:09;19.20;;;13.30;;
34765;SDS011;20984;43.508;1.504;2023-01-26T08:24:35;16.98;;;13.45;;
34765;SDS011;20984;43.508;1.504;2023-01-26T08:27:00;19.90;;;14.00;;
34765;SDS011;20984;43.508;1.504;2023-01-26T08:29:26;21.67;;;14.18;;
34765;SDS011;20984;43.508;1.504;2023-01-26T08:31:52;23.15;;;13.70;;
34765;SDS011;20984;43.508;1.504;2023-01-26T08:34:17;21.10;;;12.73;;
34765;SDS011;20984;43.508;1.504;2023-01-26T08:36:45;20.08;;;14.90;;
34765;SDS011;20984;43.508;1.504;2023-01-26T08:39:11;19.63;;;14.23;;
34765;SDS011;20984;43.508;1.504;2023-01-26T08:41:37;23.05;;;15.88;;
34765;SDS011;20984;43.508;1.504;2023-01-26T08:44:04;20.88;;;14.00;;
34765;SDS011;20984;43.508;1.504;2023-01-26T08:46:30;21.02;;;14.23;;
34765;SDS011;20984;43.508;1.504;2023-01-26T08:48:55;20.75;;;14.65;;
34765;SDS011;20984;43.508;1.504;2023-01-26T08:51:21;23.23;;;15.27;;
34765;SDS011;20984;43.508;1.504;2023-01-26T08:53:47;24.33;;;15.45;;
34765;SDS011;20984;43.508;1.504;2023-01-26T08:56:12;24.45;;;14.27;;
34765;SDS011;20984;43.508;1.504;2023-01-26T08:58:38;24.98;;;15.07;;
34765;SDS011;20984;43.508;1.504;2023-01-26T09:01:05;25.17;;;15.90;;
34765;SDS011;20984;43.508;1.504;2023-01-26T09:03:32;27.25;;;15.43;;
34765;SDS011;20984;43.508;1.504;2023-01-26T09:05:59;29.77;;;17.42;;
34765;SDS011;20984;43.508;1.504;2023-01-26T09:08:25;29.35;;;19.08;;
34765;SDS011;20984;43.508;1.504;2023-01-26T09:10:51;31.08;;;18.05;;
34765;SDS011;20984;43.508;1.504;2023-01-26T09:13:16;31.20;;;19.70;;
34765;SDS011;20984;43.508;1.504;2023-01-26T09:15:42;25.90;;;17.42;;
34765;SDS011;20984;43.508;1.504;2023-01-26T09:18:08;32.95;;;18.30;;
34765;SDS011;20984;43.508;1.504;2023-01-26T09:20:36;21.73;;;16.15;;
34765;SDS011;20984;43.508;1.504;2023-01-26T09:23:02;30.65;;;19.42;;
34765;SDS011;20984;43.508;1.504;2023-01-26T09:25:28;29.77;;;18.55;;
34765;SDS011;20984;43.508;1.504;2023-01-26T09:27:54;27.35;;;16.20;;
34765;SDS011;20984;43.508;1.504;2023-01-26T09:30:20;28.45;;;19.63;;
34765;SDS011;20984;43.508;1.504;2023-01-26T09:32:46;29.48;;;17.92;;
34765;SDS011;20984;43.508;1.504;2023-01-26T09:35:11;32.17;;;19.13;;
34765;SDS011;20984;43.508;1.504;2023-01-26T09:37:37;33.20;;;19.00;;
34765;SDS011;20984;43.508;1.504;2023-01-26T09:40:03;26.25;;;19.55;;
34765;SDS011;20984;43.508;1.504;2023-01-26T09:52:52;29.10;;;20.08;;
34765;SDS011;20984;43.508;1.504;2023-01-26T09:55:21;29.40;;;19.40;;
34765;SDS011;20984;43.508;1.504;2023-01-26T09:58:12;22.15;;;16.98;;
34765;SDS011;20984;43.508;1.504;2023-01-26T10:00:42;27.67;;;18.42;;
34765;SDS011;20984;43.508;1.504;2023-01-26T10:03:30;24.35;;;17.30;;
34765;SDS011;20984;43.508;1.504;2023-01-26T10:08:56;24.50;;;18.67;;
34765;SDS011;20984;43.508;1.504;2023-01-26T10:11:47;23.48;;;16.88;;
34765;SDS011;20984;43.508;1.504;2023-01-26T10:14:19;23.63;;;17.30;;
34765;SDS011;20984;43.508;1.504;2023-01-26T10:16:54;24.50;;;18.40;;
34765;SDS011;20984;43.508;1.504;2023-01-26T10:19:41;22.50;;;16.90;;
34765;SDS011;20984;43.508;1.504;2023-01-26T10:22:44;22.88;;;16.50;;
34765;SDS011;20984;43.508;1.504;2023-01-26T10:25:26;23.45;;;15.60;;
34765;SDS011;20984;43.508;1.504;2023-01-26T10:28:01;24.80;;;17.02;;
34765;SDS011;20984;43.508;1.504;2023-01-26T10:30:41;23.50;;;17.42;;
34765;SDS011;20984;43.508;1.504;2023-01-26T10:33:19;23.92;;;16.92;;
34765;SDS011;20984;43.508;1.504;2023-01-26T10:35:51;24.80;;;15.55;;
34765;SDS011;20984;43.508;1.504;2023-01-26T10:41:06;21.88;;;14.82;;
34765;SDS011;20984;43.508;1.504;2023-01-26T10:43:39;18.30;;;14.07;;
34765;SDS011;20984;43.508;1.504;2023-01-26T10:46:08;21.05;;;15.82;;
34765;SDS011;20984;43.508;1.504;2023-01-26T10:51:34;21.85;;;15.85;;
34765;SDS011;20984;43.508;1.504;2023-01-26T10:56:51;18.83;;;15.13;;
34765;SDS011;20984;43.508;1.504;2023-01-26T10:59:24;19.20;;;15.30;;
34765;SDS011;20984;43.508;1.504;2023-01-26T11:04:36;18.02;;;14.32;;
34765;SDS011;20984;43.508;1.504;2023-01-26T11:09:52;22.23;;;15.45;;
34765;SDS011;20984;43.508;1.504;2023-01-26T11:12:19;21.27;;;13.82;;
34765;SDS011;20984;43.508;1.504;2023-01-26T11:14:58;21.17;;;15.35;;
34765;SDS011;20984;43.508;1.504;2023-01-26T11:17:31;22.58;;;17.70;;
34765;SDS011;20984;43.508;1.504;2023-01-26T11:28:55;20.13;;;16.20;;
34765;SDS011;20984;43.508;1.504;2023-01-26T11:39:36;18.52;;;14.90;;
34765;SDS011;20984;43.508;1.504;2023-01-26T11:45:37;19.35;;;14.63;;
34765;SDS011;20984;43.508;1.504;2023-01-26T11:56:32;20.05;;;14.32;;
34765;SDS011;20984;43.508;1.504;2023-01-26T11:59:17;17.52;;;13.32;;
34765;SDS011;20984;43.508;1.504;2023-01-26T12:02:35;18.00;;;13.00;;
34765;SDS011;20984;43.508;1.504;2023-01-26T12:04:48;16.23;;;11.38;;
34765;SDS011;20984;43.508;1.504;2023-01-26T12:10:29;15.23;;;10.98;;
34765;SDS011;20984;43.508;1.504;2023-01-26T12:13:02;14.57;;;11.23;;
34765;SDS011;20984;43.508;1.504;2023-01-26T12:15:56;15.77;;;10.43;;
34765;SDS011;20984;43.508;1.504;2023-01-26T12:20:54;10.18;;;7.53;;
34765;SDS011;20984;43.508;1.504;2023-01-26T12:26:04;15.05;;;10.30;;
34765;SDS011;20984;43.508;1.504;2023-01-26T12:28:44;13.10;;;10.60;;
34765;SDS011;20984;43.508;1.504;2023-01-26T12:31:34;15.07;;;10.85;;
34765;SDS011;20984;43.508;1.504;2023-01-26T12:34:08;16.05;;;11.45;;
34765;SDS011;20984;43.508;1.504;2023-01-26T12:36:59;13.20;;;11.45;;
34765;SDS011;20984;43.508;1.504;2023-01-26T12:45:37;16.95;;;11.25;;
34765;SDS011;20984;43.508;1.504;2023-01-26T12:58:42;15.23;;;11.38;;
34765;SDS011;20984;43.508;1.504;2023-01-26T13:01:14;17.08;;;12.05;;
34765;SDS011;20984;43.508;1.504;2023-01-26T13:03:43;15.45;;;11.32;;
34765;SDS011;20984;43.508;1.504;2023-01-26T13:11:43;15.48;;;12.05;;
34765;SDS011;20984;43.508;1.504;2023-01-26T13:14:36;16.23;;;11.38;;
34765;SDS011;20984;43.508;1.504;2023-01-26T13:19:50;15.05;;;10.45;;
34765;SDS011;20984;43.508;1.504;2023-01-26T13:24:44;13.38;;;10.52;;
34765;SDS011;20984;43.508;1.504;2023-01-26T13:29:58;12.70;;;10.15;;
34765;SDS011;20984;43.508;1.504;2023-01-26T13:34:54;12.75;;;10.40;;
34765;SDS011;20984;43.508;1.504;2023-01-26T13:45:33;10.85;;;8.68;;
34765;SDS011;20984;43.508;1.504;2023-01-26T13:48:15;14.18;;;10.60;;
34765;SDS011;20984;43.508;1.504;2023-01-26T13:50:49;14.30;;;11.80;;
34765;SDS011;20984;43.508;1.504;2023-01-26T13:55:58;11.77;;;8.68;;
34765;SDS011;20984;43.508;1.504;2023-01-26T13:58:26;11.48;;;9.55;;
34765;SDS011;20984;43.508;1.504;2023-01-26T14:00:59;11.40;;;8.25;;
34765;SDS011;20984;43.508;1.504;2023-01-26T14:03:35;14.18;;;9.60;;
34765;SDS011;20984;43.508;1.504;2023-01-26T14:06:02;15.65;;;10.38;;
34765;SDS011;20984;43.508;1.504;2023-01-26T14:08:33;12.35;;;10.15;;
34765;SDS011;20984;43.508;1.504;2023-01-26T14:11:01;14.50;;;8.95;;
34765;SDS011;20984;43.508;1.504;2023-01-26T14:13:34;13.57;;;10.02;;
34765;SDS011;20984;43.508;1.504;2023-01-26T14:16:01;14.43;;;10.85;;
34765;SDS011;20984;43.508;1.504;2023-01-26T14:18:28;11.20;;;9.30;;
34765;SDS011;20984;43.508;1.504;2023-01-26T14:20:58;10.50;;;9.00;;
34765;SDS011;20984;43.508;1.504;2023-01-26T14:23:28;11.35;;;8.90;;
34765;SDS011;20984;43.508;1.504;2023-01-26T14:26:01;9.63;;;7.78;;
34765;SDS011;20984;43.508;1.504;2023-01-26T14:28:42;14.75;;;9.38;;
34765;SDS011;20984;43.508;1.504;2023-01-26T14:33:37;15.65;;;9.63;;
34765;SDS011;20984;43.508;1.504;2023-01-26T14:36:03;13.13;;;10.43;;
34765;SDS011;20984;43.508;1.504;2023-01-26T14:38:38;11.18;;;9.68;;
34765;SDS011;20984;43.508;1.504;2023-01-26T14:41:15;13.43;;;10.50;;
34765;SDS011;20984;43.508;1.504;2023-01-26T14:43:47;8.65;;;7.75;;
34765;SDS011;20984;43.508;1.504;2023-01-26T14:46:16;9.70;;;8.55;;
34765;SDS011;20984;43.508;1.504;2023-01-26T14:51:25;12.10;;;9.13;;
34765;SDS011;20984;43.508;1.504;2023-01-26T14:56:55;10.70;;;9.60;;
34765;SDS011;20984;43.508;1.504;2023-01-26T14:59:24;11.75;;;9.20;;
34765;SDS011;20984;43.508;1.504;2023-01-26T15:02:01;10.52;;;9.05;;
34765;SDS011;20984;43.508;1.504;2023-01-26T15:04:42;11.35;;;8.52;;
34765;SDS011;20984;43.508;1.504;2023-01-26T15:12:56;14.45;;;11.40;;
34765;SDS011;20984;43.508;1.504;2023-01-26T15:15:27;9.75;;;8.65;;
34765;SDS011;20984;43.508;1.504;2023-01-26T15:18:01;12.48;;;10.32;;
34765;SDS011;20984;43.508;1.504;2023-01-26T15:20:37;12.18;;;10.07;;
34765;SDS011;20984;43.508;1.504;2023-01-26T15:28:57;16.92;;;11.07;;
34765;SDS011;20984;43.508;1.504;2023-01-26T15:31:29;16.30;;;9.90;;
34765;SDS011;20984;43.508;1.504;2023-01-26T15:33:58;11.38;;;9.80;;
34765;SDS011;20984;43.508;1.504;2023-01-26T15:39:29;9.80;;;8.77;;
34765;SDS011;20984;43.508;1.504;2023-01-26T15:44:37;11.38;;;10.07;;
34765;SDS011;20984;43.508;1.504;2023-01-26T15:47:03;11.45;;;9.68;;
34765;SDS011;20984;43.508;1.504;2023-01-26T15:49:32;10.68;;;8.88;;
34765;SDS011;20984;43.508;1.504;2023-01-26T15:51:57;12.20;;;10.20;;
34765;SDS011;20984;43.508;1.504;2023-01-26T15:54:23;13.52;;;9.85;;
34765;SDS011;20984;43.508;1.504;2023-01-26T15:56:49;12.57;;;9.75;;
34765;SDS011;20984;43.508;1.504;2023-01-26T15:59:14;11.20;;;9.05;;
34765;SDS011;20984;43.508;1.504;2023-01-26T16:01:40;10.82;;;9.43;;
34765;SDS011;20984;43.508;1.504;2023-01-26T16:04:09;11.25;;;10.02;;
34765;SDS011;20984;43.508;1.504;2023-01-26T16:06:38;12.38;;;10.45;;
34765;SDS011;20984;43.508;1.504;2023-01-26T16:09:04;13.60;;;12.20;;
34765;SDS011;20984;43.508;1.504;2023-01-26T16:11:32;13.70;;;10.73;;
34765;SDS011;20984;43.508;1.504;2023-01-26T16:14:00;14.30;;;11.48;;
34765;SDS011;20984;43.508;1.504;2023-01-26T16:16:27;14.60;;;9.90;;
34765;SDS011;20984;43.508;1.504;2023-01-26T16:18:53;10.77;;;9.45;;
34765;SDS011;20984;43.508;1.504;2023-01-26T16:21:27;14.43;;;10.73;;
34765;SDS011;20984;43.508;1.504;2023-01-26T16:23:56;13.20;;;9.70;;
34765;SDS011;20984;43.508;1.504;2023-01-26T16:26:23;13.38;;;10.65;;
34765;SDS011;20984;43.508;1.504;2023-01-26T16:28:50;13.50;;;10.30;;
34765;SDS011;20984;43.508;1.504;2023-01-26T16:33:49;13.93;;;10.57;;
34765;SDS011;20984;43.508;1.504;2023-01-26T16:36:16;15.50;;;10.95;;
34765;SDS011;20984;43.508;1.504;2023-01-26T16:38:43;13.93;;;11.48;;
34765;SDS011;20984;43.508;1.504;2023-01-26T16:41:13;14.00;;;11.35;;
34765;SDS011;20984;43.508;1.504;2023-01-26T16:43:53;12.10;;;10.20;;
34765;SDS011;20984;43.508;1.504;2023-01-26T16:46:20;14.45;;;10.38;;
34765;SDS011;20984;43.508;1.504;2023-01-26T16:48:45;12.95;;;10.85;;
34765;SDS011;20984;43.508;1.504;2023-01-26T16:51:30;14.60;;;11.00;;
34765;SDS011;20984;43.508;1.504;2023-01-26T16:54:06;13.45;;;11.00;;
34765;SDS011;20984;43.508;1.504;2023-01-26T16:56:33;11.10;;;9.90;;
34765;SDS011;20984;43.508;1.504;2023-01-26T16:58:58;13.70;;;10.68;;
34765;SDS011;20984;43.508;1.504;2023-01-26T17:01:25;12.75;;;10.23;;
34765;SDS011;20984;43.508;1.504;2023-01-26T17:03:54;16.60;;;11.37;;
34765;SDS011;20984;43.508;1.504;2023-01-26T17:06:20;12.15;;;10.45;;
34765;SDS011;20984;43.508;1.504;2023-01-26T17:08:46;13.57;;;11.18;;